This is the latest recevied weather packets stored in our database for station/object N2KI-13. If no packets are shown the sender has not sent any weather packets the latest 10 day(s).
| Time | Temp. | Humidity | Pressure | Rain* | Wind** | Luminosity | Snow |
|---|---|---|---|---|---|---|---|
| 1777879204 | 2.78° C | 85% | 1012.2 hPa | 0 mm | - | - | - |
| 1777877704 | 3.33° C | 84% | 1012.2 hPa | 0 mm | - | - | - |
| 1777877403 | 3.33° C | 84% | 1012.2 hPa | 0 mm | - | - | - |
| 1777875904 | 3.33° C | 83% | 1012.2 hPa | 0 mm | - | - | - |
| 1777873504 | 3.89° C | 81% | 1012.1 hPa | 0 mm | - | - | - |
| 1777868104 | 5° C | 80% | 1011.4 hPa | 0 mm | - | - | - |
| 1777866904 | 5° C | 77% | 1011.4 hPa | 0 mm | - | - | - |
| 1777863304 | 6.11° C | 72% | 1011.4 hPa | 0 mm | - | - | - |
| 1777860904 | 7.22° C | 68% | 1011.4 hPa | 0 mm | - | - | - |
| 1777859104 | 8.89° C | 63% | 1011.3 hPa | 0 mm | - | - | - |
| 1777858504 | 9.44° C | 58% | 1011.3 hPa | 0 mm | - | - | - |
| 1777858204 | 10° C | 59% | 1011.2 hPa | 0 mm | - | - | - |
| 1777853104 | 13.89° C | 39% | 1010.4 hPa | 0 mm | - | - | - |
| 1777851304 | 14.44° C | 38% | 1010 hPa | 0 mm | - | - | - |
| 1777850703 | 14.44° C | 37% | 1010 hPa | 0 mm | - | - | - |
| 1777850104 | 14.44° C | 37% | 1009.8 hPa | 0 mm | - | - | - |
| 1777847104 | 15° C | 32% | 1009.6 hPa | 0 mm | - | - | - |
| 1777845904 | 15° C | 32% | 1009.4 hPa | 0 mm | - | - | - |
| 1777845604 | 15° C | 32% | 1009.5 hPa | 0 mm | - | - | - |
| 1777844104 | 15.56° C | 31% | 1009.4 hPa | 0 mm | - | - | - |
| 1777842304 | 15° C | 29% | 1009.4 hPa | 0 mm | - | - | - |
| 1777841704 | 14.44° C | 31% | 1009.4 hPa | 0 mm | - | - | - |
| 1777836304 | 14.44° C | 36% | 1010.1 hPa | 0 mm | - | - | - |
| 1777831204 | 12.22° C | 38% | 1010.7 hPa | 0 mm | - | - | - |
| 1777830604 | 11.67° C | 39% | 1010.8 hPa | 0 mm | - | - | - |
* Rain latest hour (hover to see other rain measurements)
** Current wind speed in m/s (hover to see current wind gust speed)